Austinville, Pennsylvania
Current Conditions -  °F | °C
As of 9:53 PM on Monday 20 Oct 2014 (Local Time) from KELM Reporting Station
Overcast Overcast  
Wind Chill: 52°   Ceiling: 8000
Heat Index: 52°   Visibility: 10mi
Dew Point: 41°   Wind: 6mph
Humidity: 66%   Direction: 170°S
Pressure: 29.88"   Gusts: NA
Location:  41.8495°N, 76.7925°W
Report Text: KELM 210153Z 17005KT 10SM OVC080 11/05 A2988 RMK AO2 RAB02E45 SLP124 P0000 T01110050
Loading
Personal Weather Stations






























Interactive Weather Map New forecast layout! Learn more

10-Day Weather Forecast

Advertisements
Track Severe Weather on mobile